createdAt,value
2018-12-26T00:00:17.792Z,0
2018-12-26T00:01:20.223Z,0
2018-12-26T00:02:20.024Z,0
2018-12-26T00:03:20.992Z,0
2018-12-26T00:04:22.237Z,0
2018-12-26T00:05:23.577Z,0
2018-12-26T00:06:22.373Z,0
2018-12-26T00:07:22.781Z,0
2018-12-26T00:08:23.620Z,0
2018-12-26T00:09:25.136Z,0
2018-12-26T00:10:25.889Z,0
2018-12-26T00:11:26.574Z,0
2018-12-26T00:12:26.704Z,0
2018-12-26T00:13:28.440Z,0
2018-12-26T00:14:29.407Z,0
2018-12-26T00:15:29.394Z,0
2018-12-26T00:16:30.637Z,0
2018-12-26T00:17:31.325Z,0
2018-12-26T00:18:32.546Z,0
2018-12-26T00:19:34.616Z,0
2018-12-26T00:20:34.434Z,0
2018-12-26T00:21:35.127Z,0
2018-12-26T00:22:35.531Z,0
2018-12-26T00:23:35.939Z,0
2018-12-26T00:24:36.399Z,0
2018-12-26T00:25:38.082Z,0
2018-12-26T00:26:39.392Z,0
2018-12-26T00:27:38.808Z,0
2018-12-26T00:28:39.335Z,0
2018-12-26T00:29:39.467Z,0
2018-12-26T00:30:40.605Z,0
2018-12-26T00:31:41.739Z,0
2018-12-26T00:32:42.708Z,0
2018-12-26T00:33:43.668Z,0
2018-12-26T00:34:43.889Z,0
2018-12-26T00:35:44.019Z,0
2018-12-26T00:36:45.540Z,0
2018-12-26T00:37:46.225Z,0
2018-12-26T00:38:47.038Z,0
2018-12-26T00:39:49.874Z,0
2018-12-26T00:40:48.002Z,0
2018-12-26T00:41:50.032Z,0
2018-12-26T00:42:50.439Z,0
2018-12-26T00:43:51.404Z,0
2018-12-26T00:44:51.811Z,0
2018-12-26T00:45:52.216Z,0
2018-12-26T00:46:52.624Z,0
2018-12-26T00:47:53.602Z,0
2018-12-26T00:48:54.066Z,0
2018-12-26T00:49:55.490Z,0
2018-12-26T00:50:56.213Z,0
2018-12-26T00:51:56.901Z,0
2018-12-26T00:52:58.034Z,0
2018-12-26T00:53:59.444Z,0
2018-12-26T00:55:00.408Z,0
2018-12-26T00:56:01.098Z,0
2018-12-26T00:57:01.508Z,0
2018-12-26T00:58:02.190Z,0
2018-12-26T00:59:02.586Z,0
2018-12-26T01:00:03.264Z,0
2018-12-26T01:01:03.395Z,0
2018-12-26T01:02:04.523Z,0
2018-12-26T01:03:06.210Z,0
2018-12-26T01:04:06.618Z,0
2018-12-26T01:05:07.025Z,0
2018-12-26T01:06:07.711Z,0
2018-12-26T01:07:08.122Z,0
2018-12-26T01:08:08.251Z,0
2018-12-26T01:09:08.514Z,0
2018-12-26T01:10:09.324Z,0
2018-12-26T01:11:09.730Z,0
2018-12-26T01:12:10.139Z,0
2018-12-26T01:13:11.546Z,0
2018-12-26T01:14:12.230Z,0
2018-12-26T01:15:13.194Z,0
2018-12-26T01:16:13.324Z,0
2018-12-26T01:17:14.731Z,0
2018-12-26T01:18:14.860Z,0
2018-12-26T01:19:15.118Z,0
2018-12-26T01:20:16.807Z,0
2018-12-26T01:21:18.057Z,0
2018-12-26T01:22:18.269Z,0
2018-12-26T01:23:18.964Z,0
2018-12-26T01:24:20.368Z,0
2018-12-26T01:25:21.332Z,0
2018-12-26T01:26:21.734Z,0
2018-12-26T01:27:23.149Z,0
2018-12-26T01:28:24.379Z,0
2018-12-26T01:29:25.777Z,0
2018-12-26T01:30:25.465Z,0
2018-12-26T01:31:25.869Z,0
2018-12-26T01:32:27.269Z,0
2018-12-26T01:33:27.950Z,0
2018-12-26T01:34:29.382Z,0
2018-12-26T01:35:29.786Z,0
2018-12-26T01:36:30.191Z,0
2018-12-26T01:37:31.593Z,0
2018-12-26T01:38:32.553Z,0
2018-12-26T01:39:33.634Z,0
2018-12-26T01:40:34.595Z,0
2018-12-26T01:41:34.998Z,0
2018-12-26T01:42:35.403Z,0
2018-12-26T01:43:35.529Z,0
2018-12-26T01:44:37.210Z,0
2018-12-26T01:45:37.339Z,0
2018-12-26T01:46:37.741Z,0
2018-12-26T01:47:39.147Z,0
2018-12-26T01:48:39.660Z,0
2018-12-26T01:49:40.194Z,0
2018-12-26T01:50:41.320Z,0
2018-12-26T01:51:43.001Z,0
2018-12-26T01:52:43.227Z,0
2018-12-26T01:53:44.464Z,0
2018-12-26T01:54:44.159Z,0
2018-12-26T01:55:44.868Z,0
2018-12-26T01:56:45.271Z,0
2018-12-26T01:57:46.954Z,0
2018-12-26T01:58:47.914Z,0
2018-12-26T01:59:48.720Z,0
2018-12-26T02:00:49.427Z,0
2018-12-26T02:01:50.112Z,0
2018-12-26T02:02:50.797Z,0
2018-12-26T02:03:50.958Z,0
2018-12-26T02:04:51.361Z,0
2018-12-26T02:05:53.043Z,0
2018-12-26T02:06:53.183Z,0
2018-12-26T02:07:54.588Z,0
2018-12-26T02:08:56.271Z,0
2018-12-26T02:09:57.102Z,0
2018-12-26T02:10:57.333Z,0
2018-12-26T02:11:58.017Z,0
2018-12-26T02:12:58.146Z,0
2018-12-26T02:13:58.825Z,0
2018-12-26T02:14:59.785Z,0
2018-12-26T02:16:00.468Z,0
2018-12-26T02:17:00.706Z,0
2018-12-26T02:18:01.109Z,0
2018-12-26T02:19:02.789Z,0
2018-12-26T02:20:03.637Z,0
2018-12-26T02:21:04.874Z,0
2018-12-26T02:22:05.611Z,0
2018-12-26T02:23:06.292Z,0
2018-12-26T02:24:06.698Z,0
2018-12-26T02:25:07.775Z,0
2018-12-26T02:26:08.188Z,0
2018-12-26T02:27:08.875Z,0
2018-12-26T02:28:09.556Z,0
2018-12-26T02:29:10.237Z,0
2018-12-26T02:30:11.890Z,0
2018-12-26T02:31:12.713Z,0
2018-12-26T02:32:14.231Z,0
2018-12-26T02:33:13.923Z,0
2018-12-26T02:34:14.338Z,0
2018-12-26T02:35:16.135Z,0
2018-12-26T02:36:15.547Z,0
2018-12-26T02:37:16.509Z,0
2018-12-26T02:38:16.754Z,0
2018-12-26T02:39:17.724Z,0
2018-12-26T02:40:17.820Z,0
2018-12-26T02:41:18.508Z,0
2018-12-26T02:42:19.287Z,0
2018-12-26T02:43:19.971Z,0
2018-12-26T02:44:21.487Z,0
2018-12-26T02:45:21.736Z,0
2018-12-26T02:46:21.418Z,0
2018-12-26T02:47:22.108Z,0
2018-12-26T02:48:23.076Z,0
2018-12-26T02:49:22.481Z,0
2018-12-26T02:50:23.863Z,0
2018-12-26T02:51:24.381Z,0
2018-12-26T02:52:24.875Z,0
2018-12-26T02:53:25.853Z,0
2018-12-26T02:54:26.098Z,0
2018-12-26T02:55:27.340Z,0
2018-12-26T02:56:27.765Z,0
2018-12-26T02:57:28.732Z,0
2018-12-26T02:58:29.138Z,0
2018-12-26T02:59:29.838Z,0
2018-12-26T03:00:30.549Z,0
2018-12-26T03:01:30.808Z,0
2018-12-26T03:02:31.046Z,0
2018-12-26T03:03:32.285Z,0
2018-12-26T03:04:33.769Z,0
2018-12-26T03:05:33.189Z,0
2018-12-26T03:06:34.314Z,0
2018-12-26T03:07:36.559Z,0
2018-12-26T03:08:36.934Z,0
2018-12-26T03:09:36.640Z,0
2018-12-26T03:10:38.024Z,0
2018-12-26T03:11:38.029Z,0
2018-12-26T03:12:39.827Z,0
2018-12-26T03:13:39.919Z,0
2018-12-26T03:14:40.325Z,0
2018-12-26T03:15:40.754Z,0
2018-12-26T03:16:42.000Z,0
2018-12-26T03:17:41.711Z,0
2018-12-26T03:18:42.130Z,0
2018-12-26T03:19:43.753Z,0
2018-12-26T03:20:44.139Z,0
2018-12-26T03:21:45.375Z,0
2018-12-26T03:22:45.341Z,0
2018-12-26T03:23:46.298Z,0
2018-12-26T03:24:47.260Z,0
2018-12-26T03:25:48.228Z,0
2018-12-26T03:27:01.289Z,0
2018-12-26T03:28:01.968Z,0
2018-12-26T03:29:03.807Z,0
2018-12-26T03:30:04.630Z,0
2018-12-26T03:31:04.616Z,0
2018-12-26T03:32:06.173Z,0
2018-12-26T03:33:07.285Z,0
2018-12-26T03:34:06.418Z,0
2018-12-26T03:35:07.170Z,0
2018-12-26T03:36:07.859Z,0
2018-12-26T03:37:09.381Z,0
2018-12-26T03:38:09.506Z,0
2018-12-26T03:39:10.005Z,0
2018-12-26T03:40:10.409Z,0
2018-12-26T03:41:11.802Z,0
2018-12-26T03:42:12.211Z,0
2018-12-26T03:43:13.482Z,0
2018-12-26T03:44:13.440Z,0
2018-12-26T03:45:14.234Z,0
2018-12-26T03:46:14.654Z,0
2018-12-26T03:47:16.060Z,0
2018-12-26T03:48:17.213Z,0
2018-12-26T03:49:18.180Z,0
2018-12-26T03:50:18.421Z,0
2018-12-26T03:51:19.657Z,0
2018-12-26T03:52:19.898Z,0
2018-12-26T03:53:19.857Z,0
2018-12-26T03:54:20.821Z,0
2018-12-26T03:55:21.511Z,0
2018-12-26T03:56:22.477Z,0
2018-12-26T03:57:23.158Z,0
2018-12-26T03:58:24.378Z,0
2018-12-26T03:59:24.343Z,0
2018-12-26T04:00:26.143Z,0
2018-12-26T04:01:26.103Z,0
2018-12-26T04:02:27.342Z,0
2018-12-26T04:03:28.862Z,0
2018-12-26T04:04:28.543Z,0
2018-12-26T04:05:29.225Z,0
2018-12-26T04:06:30.239Z,0
2018-12-26T04:07:30.516Z,0
2018-12-26T04:08:31.177Z,0
2018-12-26T04:09:31.704Z,0
2018-12-26T04:10:31.664Z,0
2018-12-26T04:11:32.640Z,0
2018-12-26T04:12:34.226Z,0
2018-12-26T04:13:34.465Z,0
2018-12-26T04:14:34.995Z,0
2018-12-26T04:15:34.957Z,0
2018-12-26T04:16:35.915Z,0
2018-12-26T04:17:36.334Z,0
2018-12-26T04:18:38.282Z,0
2018-12-26T04:19:38.968Z,0
2018-12-26T04:20:39.717Z,0
2018-12-26T04:21:39.852Z,0
2018-12-26T04:22:41.809Z,0
2018-12-26T04:23:42.044Z,0
2018-12-26T04:24:42.780Z,0
2018-12-26T04:25:43.748Z,0
2018-12-26T04:26:44.174Z,0
2018-12-26T04:27:44.857Z,0
2018-12-26T04:28:45.946Z,0
2018-12-26T04:29:46.628Z,0
2018-12-26T04:30:47.628Z,0
2018-12-26T04:31:47.601Z,0
2018-12-26T04:32:48.556Z,0
2018-12-26T04:33:48.819Z,0
2018-12-26T04:34:49.511Z,0
2018-12-26T04:35:50.555Z,0
2018-12-26T04:36:51.522Z,0
2018-12-26T04:37:51.928Z,0
2018-12-26T04:38:53.583Z,0
2018-12-26T04:39:54.267Z,0
2018-12-26T04:40:54.670Z,0
2018-12-26T04:41:55.077Z,0
2018-12-26T04:42:56.594Z,0
2018-12-26T04:43:57.372Z,0
2018-12-26T04:44:58.050Z,0
2018-12-26T04:45:59.037Z,0
2018-12-26T04:47:00.064Z,0
2018-12-26T04:48:01.853Z,0
2018-12-26T04:49:02.256Z,0
2018-12-26T04:50:03.223Z,0
2018-12-26T04:51:03.740Z,0
2018-12-26T04:52:05.260Z,0
2018-12-26T04:53:05.230Z,0
2018-12-26T04:54:06.475Z,0
2018-12-26T04:55:07.449Z,0
2018-12-26T04:56:07.856Z,0
2018-12-26T04:57:08.613Z,0
2018-12-26T04:58:10.137Z,0
2018-12-26T04:59:10.233Z,0
2018-12-26T05:00:10.497Z,0
2018-12-26T05:01:11.189Z,0
2018-12-26T05:02:11.873Z,0
2018-12-26T05:03:12.587Z,0
2018-12-26T05:04:13.271Z,0
2018-12-26T05:05:14.242Z,0
2018-12-26T05:06:15.484Z,0
2018-12-26T05:07:15.609Z,0
2018-12-26T05:08:16.576Z,0
2018-12-26T05:09:17.381Z,0
2018-12-26T05:10:18.341Z,0
2018-12-26T05:11:18.860Z,0
2018-12-26T05:12:19.268Z,0
2018-12-26T05:13:19.392Z,0
2018-12-26T05:14:20.068Z,0
2018-12-26T05:15:20.858Z,0
2018-12-26T05:16:22.539Z,0
2018-12-26T05:17:22.942Z,0
2018-12-26T05:18:23.347Z,0
2018-12-26T05:19:24.314Z,0
2018-12-26T05:20:25.278Z,0
2018-12-26T05:21:26.243Z,0
2018-12-26T05:22:26.649Z,0
2018-12-26T05:23:28.609Z,0
2018-12-26T05:24:29.573Z,0
2018-12-26T05:25:29.738Z,0
2018-12-26T05:26:31.530Z,0
2018-12-26T05:27:36.672Z,0
2018-12-26T05:28:37.641Z,0
2018-12-26T05:29:38.139Z,0
2018-12-26T05:30:39.208Z,0
2018-12-26T05:31:39.607Z,0
2018-12-26T05:32:40.574Z,0
2018-12-26T05:33:40.702Z,0
2018-12-26T05:34:42.122Z,0
2018-12-26T05:35:43.630Z,0
2018-12-26T05:36:44.869Z,0
2018-12-26T05:37:44.998Z,0
2018-12-26T05:38:46.960Z,0
2018-12-26T05:39:47.498Z,0
2018-12-26T05:40:48.179Z,0
2018-12-26T05:41:48.861Z,0
2018-12-26T05:42:49.349Z,0
2018-12-26T05:43:50.028Z,0
2018-12-26T05:44:50.429Z,0
2018-12-26T05:45:52.396Z,0
2018-12-26T05:46:52.800Z,0
2018-12-26T05:47:53.479Z,0
2018-12-26T05:48:53.887Z,0
2018-12-26T05:49:54.804Z,0
2018-12-26T05:50:55.766Z,0
2018-12-26T05:51:56.170Z,0
2018-12-26T05:52:57.573Z,0
2018-12-26T05:53:58.531Z,0
2018-12-26T05:54:59.770Z,0
2018-12-26T05:56:00.451Z,0
2018-12-26T05:57:00.574Z,0
2018-12-26T05:58:01.531Z,0
2018-12-26T05:59:02.212Z,0
2018-12-26T06:00:02.763Z,0
2018-12-26T06:01:03.444Z,0
2018-12-26T06:02:04.224Z,0
2018-12-26T06:03:04.352Z,0
2018-12-26T06:04:06.041Z,0
2018-12-26T06:05:06.723Z,0
2018-12-26T06:06:07.128Z,0
2018-12-26T06:07:07.256Z,0
2018-12-26T06:08:08.217Z,0
2018-12-26T06:09:08.620Z,0
2018-12-26T06:10:09.739Z,0
2018-12-26T06:11:10.423Z,0
2018-12-26T06:12:12.681Z,0
2018-12-26T06:13:11.676Z,0
2018-12-26T06:14:11.801Z,0
2018-12-26T06:15:13.758Z,0
2018-12-26T06:16:14.713Z,0
2018-12-26T06:17:15.952Z,0
2018-12-26T06:18:16.634Z,0
2018-12-26T06:19:17.317Z,0
2018-12-26T06:20:17.897Z,0
2018-12-26T06:21:18.409Z,0
2018-12-26T06:22:19.924Z,0
2018-12-26T06:23:20.526Z,0
2018-12-26T06:24:19.931Z,0
2018-12-26T06:25:20.631Z,0
2018-12-26T06:26:20.818Z,0
2018-12-26T06:27:21.862Z,0
2018-12-26T06:28:23.547Z,0
2018-12-26T06:29:23.953Z,0
2018-12-26T06:30:25.062Z,0
2018-12-26T06:31:26.021Z,0
2018-12-26T06:32:26.506Z,0
2018-12-26T06:33:27.189Z,0
2018-12-26T06:34:27.866Z,0
2018-12-26T06:35:28.315Z,0
2018-12-26T06:36:28.450Z,0
2018-12-26T06:37:29.946Z,0
2018-12-26T06:38:30.628Z,0
2018-12-26T06:39:31.035Z,0
2018-12-26T06:40:32.141Z,0
2018-12-26T06:41:33.101Z,0
2018-12-26T06:42:33.578Z,0
2018-12-26T06:43:33.703Z,0
2018-12-26T06:44:34.835Z,0
2018-12-26T06:45:35.961Z,0
2018-12-26T06:46:37.366Z,0
2018-12-26T06:47:37.772Z,0
2018-12-26T06:48:38.733Z,0
2018-12-26T06:49:39.141Z,0
2018-12-26T06:50:40.305Z,0
2018-12-26T06:51:41.542Z,0
2018-12-26T06:52:42.037Z,0
2018-12-26T06:53:42.482Z,0
2018-12-26T06:54:42.628Z,5.63
2018-12-26T06:55:44.868Z,5.63
2018-12-26T06:56:44.276Z,5.63
2018-12-26T06:57:45.959Z,5.63
2018-12-26T06:58:46.649Z,5.63
2018-12-26T06:59:47.057Z,5.63
2018-12-26T07:00:48.456Z,5.63
2018-12-26T07:01:48.863Z,11.25
2018-12-26T07:02:49.826Z,11.25
2018-12-26T07:03:51.164Z,11.25
2018-12-26T07:04:50.846Z,11.25
2018-12-26T07:05:51.251Z,11.25
2018-12-26T07:06:51.378Z,11.25
2018-12-26T07:07:53.065Z,16.88
2018-12-26T07:08:53.746Z,16.88
2018-12-26T07:09:53.877Z,16.88
2018-12-26T07:10:54.134Z,16.88
2018-12-26T07:11:55.912Z,16.88
2018-12-26T07:12:56.322Z,22.5
2018-12-26T07:13:56.729Z,22.5
2018-12-26T07:14:56.855Z,22.5
2018-12-26T07:15:58.545Z,22.5
2018-12-26T07:16:59.609Z,28.13
2018-12-26T07:18:00.014Z,28.13
2018-12-26T07:19:01.145Z,28.13
2018-12-26T07:20:02.551Z,33.75
2018-12-26T07:21:02.808Z,33.75
2018-12-26T07:22:03.866Z,33.75
2018-12-26T07:23:05.159Z,39.38
2018-12-26T07:24:05.290Z,39.38
2018-12-26T07:25:07.255Z,39.38
2018-12-26T07:26:07.661Z,39.38
2018-12-26T07:27:08.911Z,45
2018-12-26T07:28:12.301Z,45
2018-12-26T07:29:12.982Z,45
2018-12-26T07:30:13.111Z,50.63
2018-12-26T07:31:14.219Z,50.63
2018-12-26T07:32:14.903Z,50.63
2018-12-26T07:33:15.309Z,50.63
2018-12-26T07:34:15.994Z,56.25
2018-12-26T07:35:17.679Z,56.25
2018-12-26T07:36:18.475Z,56.25
2018-12-26T07:37:18.608Z,56.25
2018-12-26T07:38:20.297Z,56.25
2018-12-26T07:39:20.990Z,61.88
2018-12-26T07:40:21.404Z,61.88
2018-12-26T07:41:22.596Z,61.88
2018-12-26T07:42:23.278Z,67.5
2018-12-26T07:43:24.522Z,67.5
2018-12-26T07:44:25.212Z,67.5
2018-12-26T07:45:26.273Z,67.5
2018-12-26T07:46:26.960Z,67.5
2018-12-26T07:47:27.371Z,67.5
2018-12-26T07:48:30.584Z,73.13
2018-12-26T07:49:28.714Z,168.75
2018-12-26T07:50:29.401Z,281.25
2018-12-26T07:51:30.036Z,388.13
2018-12-26T07:52:31.454Z,438.75
2018-12-26T07:53:32.862Z,472.5
2018-12-26T07:54:33.273Z,511.88
2018-12-26T07:55:33.960Z,590.63
2018-12-26T07:56:35.372Z,686.25
2018-12-26T07:57:36.378Z,630
2018-12-26T07:58:37.066Z,601.88
2018-12-26T07:59:39.960Z,568.13
2018-12-26T08:00:41.090Z,264.38
2018-12-26T08:01:42.580Z,118.13
2018-12-26T08:02:43.267Z,118.13
2018-12-26T08:03:43.954Z,146.25
2018-12-26T08:04:44.925Z,337.5
2018-12-26T08:05:45.336Z,528.75
2018-12-26T08:06:45.746Z,551.25
2018-12-26T08:07:46.157Z,511.88
2018-12-26T08:08:47.680Z,416.25
2018-12-26T08:09:47.812Z,320.63
2018-12-26T08:10:49.224Z,202.5
2018-12-26T08:11:50.089Z,129.38
2018-12-26T08:12:50.783Z,129.38
2018-12-26T08:13:52.024Z,123.75
2018-12-26T08:14:52.717Z,123.75
2018-12-26T08:15:53.126Z,129.38
2018-12-26T08:16:55.697Z,129.38
2018-12-26T08:17:56.107Z,185.63
2018-12-26T08:18:57.080Z,506.25
2018-12-26T08:19:57.584Z,736.88
2018-12-26T08:20:58.275Z,736.88
2018-12-26T08:21:57.935Z,663.75
2018-12-26T08:22:59.624Z,596.25
2018-12-26T08:24:00.594Z,770.63
2018-12-26T08:25:01.452Z,871.88
2018-12-26T08:26:02.145Z,517.5
2018-12-26T08:27:02.843Z,185.63
2018-12-26T08:28:03.613Z,140.63
2018-12-26T08:29:04.301Z,140.63
2018-12-26T08:30:05.041Z,140.63
2018-12-26T08:31:05.730Z,140.63
2018-12-26T08:32:06.858Z,140.63
2018-12-26T08:33:06.992Z,140.63
2018-12-26T08:34:08.125Z,140.63
2018-12-26T08:35:09.546Z,157.5
2018-12-26T08:36:10.797Z,168.75
2018-12-26T08:37:10.203Z,236.25
2018-12-26T08:38:10.614Z,478.13
2018-12-26T08:39:11.309Z,748.13
2018-12-26T08:40:12.001Z,450
2018-12-26T08:41:12.691Z,230.63
2018-12-26T08:42:13.835Z,624.38
2018-12-26T08:43:15.085Z,1012.5
2018-12-26T08:44:15.777Z,905.63
2018-12-26T08:45:16.191Z,658.13
2018-12-26T08:46:17.157Z,450
2018-12-26T08:47:17.658Z,275.63
2018-12-26T08:48:18.347Z,320.63
2018-12-26T08:49:19.034Z,303.75
2018-12-26T08:50:20.011Z,376.88
2018-12-26T08:51:20.427Z,478.13
2018-12-26T08:52:21.374Z,601.88
2018-12-26T08:53:21.784Z,849.38
2018-12-26T08:54:23.195Z,585
2018-12-26T08:55:23.884Z,309.38
2018-12-26T08:56:24.577Z,174.38
2018-12-26T08:57:25.266Z,264.38
2018-12-26T08:58:25.784Z,523.13
2018-12-26T08:58:37.734Z,568.13
2018-12-26T08:59:38.662Z,765
2018-12-26T09:00:39.632Z,922.5
2018-12-26T09:01:39.944Z,1023.75
2018-12-26T09:02:40.355Z,646.88
2018-12-26T09:03:40.488Z,298.13
2018-12-26T09:04:41.623Z,180
2018-12-26T09:05:42.751Z,174.38
2018-12-26T09:06:44.165Z,213.75
2018-12-26T09:07:44.300Z,393.75
2018-12-26T09:08:46.269Z,309.38
2018-12-26T09:09:46.226Z,247.5
2018-12-26T09:10:46.639Z,365.63
2018-12-26T09:11:47.051Z,478.13
2018-12-26T09:12:48.574Z,646.88
2018-12-26T09:13:48.714Z,691.88
2018-12-26T09:14:49.858Z,905.63
2018-12-26T09:15:51.915Z,900
2018-12-26T09:16:52.883Z,528.75
2018-12-26T09:17:53.386Z,714.38
2018-12-26T09:18:55.787Z,973.13
2018-12-26T09:19:54.452Z,776.25
2018-12-26T09:20:55.984Z,455.63
2018-12-26T09:21:56.402Z,247.5
2018-12-26T09:22:58.089Z,219.38
2018-12-26T09:23:58.223Z,376.88
2018-12-26T09:24:59.639Z,478.13
2018-12-26T09:26:00.606Z,624.38
2018-12-26T09:27:01.852Z,765
2018-12-26T09:28:02.099Z,815.63
2018-12-26T09:29:08.256Z,675
2018-12-26T09:29:20.353Z,658.13
2018-12-26T09:30:16.878Z,450
2018-12-26T09:31:17.011Z,281.25
2018-12-26T09:32:17.421Z,320.63
2018-12-26T09:33:18.558Z,433.13
2018-12-26T09:34:21.569Z,984.38
2018-12-26T09:35:23.090Z,1473.75
2018-12-26T09:36:22.119Z,1760.63
2018-12-26T09:37:22.106Z,2188.13
2018-12-26T09:38:22.814Z,2475
2018-12-26T09:39:23.232Z,2632.5
2018-12-26T09:40:23.774Z,2660.63
2018-12-26T09:41:24.745Z,2643.75
2018-12-26T09:42:26.278Z,2643.75
2018-12-26T09:43:30.800Z,1642.5
2018-12-26T09:43:44.318Z,1462.5
2018-12-26T09:43:55.889Z,1265.63
2018-12-26T09:44:57.246Z,1237.5
2018-12-26T09:45:57.487Z,1839.38
2018-12-26T09:46:59.006Z,1923.75
2018-12-26T09:47:59.721Z,2131.88
2018-12-26T09:49:00.419Z,1715.63
2018-12-26T09:50:01.215Z,635.63
2018-12-26T09:51:01.634Z,450
2018-12-26T09:52:02.043Z,540
2018-12-26T09:53:02.459Z,995.63
2018-12-26T09:54:03.604Z,1153.13
2018-12-26T09:55:09.375Z,1344.38
2018-12-26T09:56:07.066Z,1473.75
2018-12-26T09:57:07.763Z,1383.75
2018-12-26T09:58:08.454Z,849.38
2018-12-26T09:59:09.148Z,956.25
2018-12-26T10:00:09.565Z,1558.13
2018-12-26T10:01:10.273Z,1220.63
2018-12-26T10:02:10.686Z,646.88
2018-12-26T10:03:12.124Z,371.25
2018-12-26T10:04:13.099Z,1248.75
2018-12-26T10:05:13.646Z,1732.5
2018-12-26T10:06:14.351Z,1293.75
2018-12-26T10:07:15.038Z,703.13
2018-12-26T10:08:16.011Z,680.63
2018-12-26T10:09:22.342Z,1546.88
2018-12-26T10:09:31.192Z,1687.5
2018-12-26T10:10:31.012Z,2176.88
2018-12-26T10:11:32.004Z,2536.88
2018-12-26T10:12:32.981Z,2587.5
2018-12-26T10:13:33.945Z,2581.88
2018-12-26T10:14:34.017Z,2475
2018-12-26T10:15:34.711Z,2446.88
2018-12-26T10:16:35.129Z,2525.63
2018-12-26T10:17:36.922Z,2925
2018-12-26T10:18:37.623Z,3138.75
2018-12-26T10:19:38.418Z,3071.25
2018-12-26T10:20:39.119Z,2958.75
2018-12-26T10:21:40.263Z,2902.5
2018-12-26T10:22:41.407Z,2902.5
2018-12-26T10:23:43.463Z,2857.5
2018-12-26T10:24:43.996Z,2953.13
2018-12-26T10:25:44.145Z,3060
2018-12-26T10:26:45.868Z,2795.63
2018-12-26T10:27:46.288Z,2182.5
2018-12-26T10:28:48.373Z,2053.13
2018-12-26T10:30:07.195Z,1794.38
2018-12-26T10:30:19.855Z,1833.75
2018-12-26T10:30:43.944Z,1985.63
2018-12-26T10:30:52.935Z,2053.13
2018-12-26T10:31:50.206Z,2345.63
2018-12-26T10:32:51.908Z,2632.5
2018-12-26T10:33:52.607Z,2739.38
2018-12-26T10:34:53.028Z,2430
2018-12-26T10:35:53.450Z,2345.63
2018-12-26T10:36:53.879Z,2475
2018-12-26T10:37:54.300Z,2497.5
2018-12-26T10:38:54.812Z,2109.38
2018-12-26T10:39:55.236Z,2092.5
2018-12-26T10:40:56.225Z,2300.63
2018-12-26T10:41:57.335Z,2638.13
2018-12-26T10:42:58.038Z,2880
2018-12-26T10:43:58.180Z,2885.63
2018-12-26T10:44:58.679Z,3015
2018-12-26T10:45:59.386Z,2896.88
2018-12-26T10:46:59.813Z,2846.25
2018-12-26T10:48:00.236Z,3043.13
2018-12-26T10:49:01.213Z,3110.63
2018-12-26T10:50:02.342Z,3189.38
2018-12-26T10:51:02.491Z,3228.75
2018-12-26T10:52:03.910Z,3211.88
2018-12-26T10:53:04.333Z,3341.25
2018-12-26T10:54:04.481Z,3436.88
2018-12-26T10:55:05.283Z,3375
2018-12-26T10:56:05.988Z,3245.63
2018-12-26T10:57:06.899Z,3195
2018-12-26T10:58:08.043Z,3065.63
2018-12-26T10:59:12.447Z,3088.13
2018-12-26T11:00:16.062Z,3285
2018-12-26T11:01:13.785Z,3363.75
2018-12-26T11:02:14.337Z,3301.88
2018-12-26T11:03:15.039Z,3211.88
2018-12-26T11:04:16.018Z,3200.63
2018-12-26T11:05:16.168Z,3195
2018-12-26T11:06:17.869Z,3172.5
2018-12-26T11:07:19.685Z,2705.63
2018-12-26T11:08:18.830Z,2115
2018-12-26T11:09:20.253Z,1878.75
2018-12-26T11:10:20.674Z,2103.75
2018-12-26T11:11:21.113Z,2604.38
2018-12-26T11:12:21.337Z,2745
2018-12-26T11:13:21.765Z,1816.88
2018-12-26T11:14:22.916Z,1530
2018-12-26T11:15:23.616Z,2536.88
2018-12-26T11:16:24.040Z,3150
2018-12-26T11:17:24.206Z,3133.13
2018-12-26T11:18:25.641Z,3161.25
2018-12-26T11:19:26.341Z,3099.38
2018-12-26T11:20:27.319Z,3037.5
2018-12-26T11:21:28.028Z,2998.13
2018-12-26T11:22:47.174Z,2328.75
2018-12-26T11:23:11.026Z,1884.38
2018-12-26T11:23:19.806Z,1726.88
2018-12-26T11:24:19.159Z,1147.5
2018-12-26T11:25:19.304Z,2131.88
2018-12-26T11:26:20.282Z,2868.75
2018-12-26T11:27:20.982Z,3093.75
2018-12-26T11:28:21.683Z,3065.63
2018-12-26T11:29:22.105Z,2716.88
2018-12-26T11:30:40.720Z,2936.25
2018-12-26T11:30:52.423Z,2941.88
2018-12-26T11:31:48.582Z,2998.13
2018-12-26T11:32:50.031Z,1845
2018-12-26T11:33:50.598Z,1226.25
2018-12-26T11:34:51.017Z,1468.13
2018-12-26T11:35:51.159Z,562.5
2018-12-26T11:36:52.137Z,264.38
2018-12-26T11:37:53.115Z,545.63
2018-12-26T11:38:52.815Z,1963.13
2018-12-26T11:39:54.516Z,2655
2018-12-26T11:40:54.941Z,1608.75
2018-12-26T11:41:56.890Z,562.5
2018-12-26T11:42:57.152Z,286.88
2018-12-26T11:43:57.404Z,258.75
2018-12-26T11:44:58.106Z,911.25
2018-12-26T11:45:58.604Z,2379.38
2018-12-26T11:46:59.069Z,2649.38
2018-12-26T11:48:00.488Z,2396.25
2018-12-26T11:49:00.908Z,2328.75
2018-12-26T11:50:03.173Z,1468.13
2018-12-26T11:51:04.196Z,438.75
2018-12-26T11:52:04.471Z,1395
2018-12-26T11:53:06.169Z,1957.5
2018-12-26T11:54:06.877Z,1608.75
2018-12-26T11:55:07.300Z,1310.63
2018-12-26T11:56:07.573Z,1305
2018-12-26T11:57:08.993Z,843.75
2018-12-26T11:58:10.529Z,585
2018-12-26T11:59:09.669Z,1091.25
2018-12-26T12:00:30.574Z,1158.75
2018-12-26T12:00:55.601Z,1310.63
2018-12-26T12:01:06.665Z,1350
2018-12-26T12:01:16.769Z,1378.13
2018-12-26T12:02:27.177Z,911.25
2018-12-26T12:03:28.383Z,573.75
2018-12-26T12:04:29.358Z,1282.5
2018-12-26T12:05:29.782Z,1726.88
2018-12-26T12:06:30.481Z,1710
2018-12-26T12:07:31.200Z,1496.25
2018-12-26T12:08:32.346Z,1648.13
2018-12-26T12:09:33.484Z,1749.38
2018-12-26T12:10:35.182Z,2126.25
2018-12-26T12:11:35.622Z,2283.75
2018-12-26T12:12:36.653Z,1850.63
2018-12-26T12:13:36.944Z,1670.63
2018-12-26T12:14:37.672Z,2165.63
2018-12-26T12:15:38.371Z,2649.38
2018-12-26T12:16:38.613Z,2379.38
2018-12-26T12:17:39.956Z,1963.13
2018-12-26T12:18:41.035Z,1816.88
2018-12-26T12:19:41.738Z,1743.75
2018-12-26T12:20:42.439Z,2131.88
2018-12-26T12:21:43.138Z,2407.5
2018-12-26T12:22:43.944Z,2115
2018-12-26T12:23:44.585Z,1642.5
2018-12-26T12:24:45.011Z,1001.25
2018-12-26T12:25:45.991Z,1136.25
2018-12-26T12:26:46.414Z,1530
2018-12-26T12:27:47.393Z,1659.38
2018-12-26T12:28:47.818Z,1507.5
2018-12-26T12:30:05.742Z,1676.25
2018-12-26T12:31:17.337Z,1951.88
2018-12-26T12:32:16.375Z,2171.25
2018-12-26T12:33:17.753Z,2503.13
2018-12-26T12:34:18.177Z,2418.75
2018-12-26T12:35:20.154Z,2345.63
2018-12-26T12:36:20.855Z,2334.38
2018-12-26T12:37:21.556Z,2334.38
2018-12-26T12:38:23.111Z,2491.88
2018-12-26T12:39:23.253Z,2621.25
2018-12-26T12:40:24.676Z,2593.13
2018-12-26T12:41:26.378Z,2199.38
2018-12-26T12:42:27.239Z,1839.38
2018-12-26T12:43:27.933Z,1828.13
2018-12-26T12:44:29.767Z,2137.5
2018-12-26T12:45:31.305Z,1929.38
2018-12-26T12:46:31.283Z,1288.13
2018-12-26T12:47:31.710Z,1074.38
2018-12-26T12:48:32.407Z,1125
2018-12-26T12:49:32.829Z,675
2018-12-26T12:50:33.258Z,495
2018-12-26T12:51:34.514Z,697.5
2018-12-26T12:52:34.628Z,967.5
2018-12-26T12:53:35.043Z,798.75
2018-12-26T12:54:36.301Z,461.25
2018-12-26T12:55:36.280Z,579.38
2018-12-26T12:56:36.423Z,916.88
2018-12-26T12:57:38.679Z,1248.75
2018-12-26T12:58:38.382Z,990
2018-12-26T12:59:51.174Z,945
2018-12-26T13:00:51.152Z,1125
2018-12-26T13:01:51.848Z,849.38
2018-12-26T13:03:03.439Z,945
2018-12-26T13:04:03.989Z,1648.13
2018-12-26T13:05:05.414Z,1996.88
2018-12-26T13:06:05.834Z,1597.5
2018-12-26T13:07:07.045Z,1164.38
2018-12-26T13:08:09.094Z,1220.63
2018-12-26T13:09:09.071Z,1732.5
2018-12-26T13:10:09.769Z,1175.63
2018-12-26T13:11:09.913Z,540
2018-12-26T13:12:11.333Z,753.75
2018-12-26T13:13:12.039Z,1209.38
2018-12-26T13:14:13.099Z,1535.63
2018-12-26T13:15:15.249Z,1237.5
2018-12-26T13:16:14.285Z,601.88
2018-12-26T13:17:14.704Z,888.75
2018-12-26T13:18:15.125Z,1580.63
2018-12-26T13:19:16.658Z,1260
2018-12-26T13:20:17.099Z,1091.25
2018-12-26T13:21:17.806Z,1338.75
2018-12-26T13:22:19.232Z,1355.63
2018-12-26T13:23:19.650Z,1271.25
2018-12-26T13:24:20.249Z,1023.75
2018-12-26T13:25:20.671Z,956.25
2018-12-26T13:26:34.350Z,1125
2018-12-26T13:27:34.868Z,1355.63
2018-12-26T13:28:35.289Z,1333.13
2018-12-26T13:29:35.711Z,1237.5
2018-12-26T13:30:40.820Z,1366.88
2018-12-26T13:31:38.655Z,1344.38
2018-12-26T13:32:43.438Z,1288.13
2018-12-26T13:32:55.921Z,1327.5
2018-12-26T13:33:18.325Z,1389.38
2018-12-26T13:34:14.990Z,1417.5
2018-12-26T13:35:15.692Z,1558.13